Time,TemperatureF,DewpointF,PressureIn,WindDirection,WindDirectionDegrees,WindSpeedMPH,WindSpeedGustMPH,Humidity,HourlyPrecipIn,Conditions,Clouds,dailyrainin,SoftwareType,DateUTC
2013-01-17 00:00:00,60.6,58.6,29.99,SW,225,0.0,0.0,93,0.00,SCT,,0.00,WeatherDisplay:10.37,2013-01-17 05:00:00,
2013-01-17 00:02:00,60.6,58.6,29.99,SW,225,0.0,0.0,93,0.00,SCT,,0.00,WeatherDisplay:10.37,2013-01-17 05:02:00,
2013-01-17 00:03:00,60.6,58.6,29.99,SW,225,0.0,0.0,93,0.00,SCT,,0.00,WeatherDisplay:10.37,2013-01-17 05:03:00,
2013-01-17 00:05:00,60.6,58.6,29.99,SW,225,0.0,0.0,93,0.00,SCT,,0.00,WeatherDisplay:10.37,2013-01-17 05:05:00,
2013-01-17 00:10:00,60.4,58.4,29.98,SW,225,0.0,0.0,93,0.00,SCT,,0.00,WeatherDisplay:10.37,2013-01-17 05:10:00,
2013-01-17 00:15:00,60.4,58.4,29.98,SW,225,0.0,0.0,93,0.00,SCT,,0.00,WeatherDisplay:10.37,2013-01-17 05:15:00,
2013-01-17 00:20:00,60.3,58.2,29.98,SW,225,0.0,0.0,93,0.00,SCT,,0.00,WeatherDisplay:10.37,2013-01-17 05:20:00,
2013-01-17 00:25:00,59.9,57.9,29.98,SW,225,0.0,0.0,93,0.00,SCT,,0.00,WeatherDisplay:10.37,2013-01-17 05:25:00,
2013-01-17 00:30:00,59.9,58.2,29.98,SW,225,0.0,0.0,94,0.00,SCT,,0.00,WeatherDisplay:10.37,2013-01-17 05:30:00,
2013-01-17 00:35:00,59.7,58.0,29.98,SW,225,0.0,0.0,94,0.00,CLR,,0.00,WeatherDisplay:10.37,2013-01-17 05:35:00,
2013-01-17 00:40:00,59.7,58.0,29.98,SW,225,0.0,0.0,94,0.00,CLR,,0.00,WeatherDisplay:10.37,2013-01-17 05:40:00,
2013-01-17 00:45:00,59.7,58.0,29.98,SW,225,0.0,0.0,94,0.00,CLR,,0.00,WeatherDisplay:10.37,2013-01-17 05:45:00,
2013-01-17 00:50:00,59.7,58.0,29.98,SW,225,0.0,0.0,94,0.00,CLR,,0.00,WeatherDisplay:10.37,2013-01-17 05:50:00,
2013-01-17 00:55:00,59.5,57.8,29.98,SW,225,0.0,0.0,94,0.00,CLR,,0.00,WeatherDisplay:10.37,2013-01-17 05:55:00,
2013-01-17 01:00:00,59.5,58.1,29.98,SW,225,0.0,0.0,95,0.00,CLR,,0.00,WeatherDisplay:10.37,2013-01-17 06:00:00,
2013-01-17 01:05:00,59.4,57.9,29.98,SW,225,0.0,0.0,95,0.00,CLR,,0.00,WeatherDisplay:10.37,2013-01-17 06:05:00,
2013-01-17 01:10:00,59.2,57.7,29.98,SW,225,0.0,0.0,95,0.00,CLR,,0.00,WeatherDisplay:10.37,2013-01-17 06:10:00,
2013-01-17 01:15:00,59.2,57.7,29.98,SW,225,0.0,0.0,95,0.00,CLR,,0.00,WeatherDisplay:10.37,2013-01-17 06:15:00,
2013-01-17 01:20:00,59.2,57.7,29.98,SW,225,0.0,0.0,95,0.00,CLR,,0.00,WeatherDisplay:10.37,2013-01-17 06:20:00,
2013-01-17 01:25:00,59.2,57.7,29.98,SW,225,0.0,0.0,95,0.00,CLR,,0.00,WeatherDisplay:10.37,2013-01-17 06:25:00,
2013-01-17 01:30:00,59.4,57.9,29.97,SW,225,0.0,0.0,95,0.00,CLR,,0.00,WeatherDisplay:10.37,2013-01-17 06:30:00,
2013-01-17 01:35:00,59.4,57.9,29.98,SW,225,0.0,0.0,95,0.00,CLR,,0.00,WeatherDisplay:10.37,2013-01-17 06:35:00,
2013-01-17 01:40:00,59.5,58.1,29.97,SW,225,0.0,0.0,95,0.00,CLR,,0.00,WeatherDisplay:10.37,2013-01-17 06:40:00,
2013-01-17 01:45:00,59.5,58.1,29.98,SW,225,0.0,0.0,95,0.00,CLR,,0.00,WeatherDisplay:10.37,2013-01-17 06:45:00,
2013-01-17 01:50:00,59.7,58.3,29.98,SW,225,0.0,0.0,95,0.00,CLR,,0.00,WeatherDisplay:10.37,2013-01-17 06:50:00,
2013-01-17 01:55:00,59.7,58.3,29.97,SW,225,0.0,0.0,95,0.00,CLR,,0.00,WeatherDisplay:10.37,2013-01-17 06:55:00,
2013-01-17 02:00:00,59.7,58.3,29.98,SW,225,0.0,0.0,95,0.00,CLR,,0.00,WeatherDisplay:10.37,2013-01-17 07:00:00,
2013-01-17 02:05:00,59.7,58.3,29.97,SW,225,0.0,0.0,95,0.00,CLR,,0.00,WeatherDisplay:10.37,2013-01-17 07:05:00,
2013-01-17 02:10:00,59.7,58.3,29.97,SW,225,0.0,0.0,95,0.00,CLR,,0.00,WeatherDisplay:10.37,2013-01-17 07:10:00,
2013-01-17 02:15:00,59.7,58.3,29.98,SW,225,0.0,0.0,95,0.00,CLR,,0.00,WeatherDisplay:10.37,2013-01-17 07:15:00,
2013-01-17 02:20:00,59.5,58.1,29.97,SW,225,0.0,0.0,95,0.00,CLR,,0.00,WeatherDisplay:10.37,2013-01-17 07:20:00,
2013-01-17 02:25:00,59.5,58.1,29.97,SW,225,0.0,0.0,95,0.00,CLR,,0.00,WeatherDisplay:10.37,2013-01-17 07:25:00,
2013-01-17 02:30:00,59.5,58.1,29.97,SW,225,0.0,0.0,95,0.00,CLR,,0.00,WeatherDisplay:10.37,2013-01-17 07:30:00,
2013-01-17 02:35:00,59.5,58.1,29.97,SW,225,0.0,0.0,95,0.00,CLR,,0.00,WeatherDisplay:10.37,2013-01-17 07:35:00,
2013-01-17 02:40:00,59.4,57.9,29.97,SW,225,0.0,0.0,95,0.00,CLR,,0.00,WeatherDisplay:10.37,2013-01-17 07:40:00,
2013-01-17 02:45:00,59.2,57.7,29.97,SW,225,0.0,0.0,95,0.00,CLR,,0.00,WeatherDisplay:10.37,2013-01-17 07:45:00,
2013-01-17 02:50:00,59.2,57.7,29.97,SW,225,0.0,0.0,95,0.00,CLR,,0.00,WeatherDisplay:10.37,2013-01-17 07:50:00,
2013-01-17 02:55:00,59.0,57.6,29.97,SW,225,0.0,0.0,95,0.00,CLR,,0.00,WeatherDisplay:10.37,2013-01-17 07:55:00,
2013-01-17 03:00:00,58.8,57.4,29.97,SW,225,0.0,0.0,95,0.00,CLR,,0.00,WeatherDisplay:10.37,2013-01-17 08:00:00,
2013-01-17 03:05:00,58.8,57.4,29.97,SW,225,0.0,0.0,95,0.00,CLR,,0.00,WeatherDisplay:10.37,2013-01-17 08:05:00,
2013-01-17 03:10:00,58.6,57.2,29.96,SW,225,0.0,0.0,95,0.00,CLR,,0.00,WeatherDisplay:10.37,2013-01-17 08:10:00,
2013-01-17 03:15:00,58.6,57.2,29.96,SW,225,0.0,0.0,95,0.00,CLR,,0.00,WeatherDisplay:10.37,2013-01-17 08:15:00,
2013-01-17 03:20:00,58.6,57.2,29.96,SW,225,0.0,0.0,95,0.00,CLR,,0.00,WeatherDisplay:10.37,2013-01-17 08:20:00,
2013-01-17 03:25:00,58.6,57.5,29.96,SW,225,0.0,0.0,96,0.00,CLR,,0.00,WeatherDisplay:10.37,2013-01-17 08:25:00,
2013-01-17 03:30:00,58.6,57.5,29.96,SW,225,0.0,0.0,96,0.00,CLR,,0.00,WeatherDisplay:10.37,2013-01-17 08:30:00,
2013-01-17 03:35:00,58.6,57.5,29.96,SW,225,0.0,0.0,96,0.00,CLR,,0.00,WeatherDisplay:10.37,2013-01-17 08:35:00,
2013-01-17 03:40:00,58.6,57.5,29.96,SW,225,0.0,0.0,96,0.00,CLR,,0.00,WeatherDisplay:10.37,2013-01-17 08:40:00,
2013-01-17 03:45:00,58.6,57.5,29.96,SW,225,0.0,0.0,96,0.00,CLR,,0.00,WeatherDisplay:10.37,2013-01-17 08:45:00,
2013-01-17 03:50:00,58.6,57.5,29.95,SW,225,0.0,0.0,96,0.00,CLR,,0.00,WeatherDisplay:10.37,2013-01-17 08:50:00,
2013-01-17 03:55:00,58.6,57.5,29.96,SW,225,0.0,0.0,96,0.00,CLR,,0.00,WeatherDisplay:10.37,2013-01-17 08:55:00,
2013-01-17 04:00:00,58.6,57.5,29.95,SW,225,0.0,0.0,96,0.00,CLR,,0.00,WeatherDisplay:10.37,2013-01-17 09:00:00,
2013-01-17 04:05:00,58.6,57.5,29.95,SW,225,0.0,0.0,96,0.00,CLR,,0.00,WeatherDisplay:10.37,2013-01-17 09:05:00,
2013-01-17 04:10:00,58.6,57.5,29.95,SW,225,0.0,0.0,96,0.00,CLR,,0.00,WeatherDisplay:10.37,2013-01-17 09:10:00,
2013-01-17 04:15:00,58.8,57.7,29.95,SW,225,0.0,0.0,96,0.00,CLR,,0.00,WeatherDisplay:10.37,2013-01-17 09:15:00,
2013-01-17 04:20:00,59.2,58.0,29.95,SW,225,0.0,0.0,96,0.00,CLR,,0.00,WeatherDisplay:10.37,2013-01-17 09:20:00,
2013-01-17 04:25:00,59.2,58.0,29.95,SW,225,0.0,0.0,96,0.00,CLR,,0.00,WeatherDisplay:10.37,2013-01-17 09:25:00,
2013-01-17 04:30:00,59.2,58.0,29.95,SW,225,0.0,0.0,96,0.00,CLR,,0.00,WeatherDisplay:10.37,2013-01-17 09:30:00,
2013-01-17 04:35:00,59.2,58.0,29.95,SW,225,0.0,0.0,96,0.00,CLR,,0.00,WeatherDisplay:10.37,2013-01-17 09:35:00,
2013-01-17 04:40:00,59.5,58.4,29.95,SW,225,0.0,0.0,96,0.00,CLR,,0.00,WeatherDisplay:10.37,2013-01-17 09:40:00,
2013-01-17 04:45:00,59.5,58.4,29.95,SW,225,0.0,0.0,96,0.00,CLR,,0.00,WeatherDisplay:10.37,2013-01-17 09:45:00,
2013-01-17 04:50:00,59.5,58.7,29.95,SW,225,0.0,0.0,97,0.00,CLR,,0.00,WeatherDisplay:10.37,2013-01-17 09:50:00,
2013-01-17 04:55:00,59.7,58.9,29.95,SW,225,0.0,0.0,97,0.00,CLR,,0.00,WeatherDisplay:10.37,2013-01-17 09:55:00,
2013-01-17 05:00:00,59.7,58.9,29.94,SW,225,0.0,0.0,97,0.00,CLR,,0.00,WeatherDisplay:10.37,2013-01-17 10:00:00,
2013-01-17 05:05:00,59.7,58.9,29.94,SW,225,0.0,0.0,97,0.00,CLR,,0.00,WeatherDisplay:10.37,2013-01-17 10:05:00,
2013-01-17 05:10:00,59.7,58.9,29.95,SW,225,0.0,0.0,97,0.00,CLR,,0.00,WeatherDisplay:10.37,2013-01-17 10:10:00,
2013-01-17 05:15:00,59.9,59.0,29.95,SW,225,0.0,0.0,97,0.00,CLR,,0.00,WeatherDisplay:10.37,2013-01-17 10:15:00,
2013-01-17 05:20:00,59.9,59.0,29.95,SW,225,0.0,0.0,97,0.00,CLR,,0.00,WeatherDisplay:10.37,2013-01-17 10:20:00,
2013-01-17 05:25:00,60.1,59.2,29.95,SW,225,0.0,0.0,97,0.00,CLR,,0.00,WeatherDisplay:10.37,2013-01-17 10:25:00,
2013-01-17 05:30:00,60.1,59.2,29.95,SW,225,0.0,0.0,97,0.00,CLR,,0.00,WeatherDisplay:10.37,2013-01-17 10:30:00,
2013-01-17 05:35:00,59.9,59.0,29.95,SW,225,0.0,0.0,97,0.00,CLR,,0.00,WeatherDisplay:10.37,2013-01-17 10:35:00,
2013-01-17 05:40:00,60.1,59.2,29.95,SW,225,0.0,0.0,97,0.00,CLR,,0.00,WeatherDisplay:10.37,2013-01-17 10:40:00,
2013-01-17 05:45:00,60.1,59.2,29.95,SW,225,0.0,0.0,97,0.00,CLR,,0.00,WeatherDisplay:10.37,2013-01-17 10:45:00,
2013-01-17 05:50:00,60.1,59.2,29.95,SW,225,0.0,0.0,97,0.00,CLR,,0.00,WeatherDisplay:10.37,2013-01-17 10:50:00,
2013-01-17 05:55:00,60.1,59.2,29.95,SW,225,0.0,0.0,97,0.00,CLR,,0.00,WeatherDisplay:10.37,2013-01-17 10:55:00,
2013-01-17 06:00:00,60.1,59.2,29.95,SW,225,0.0,0.0,97,0.00,CLR,,0.00,WeatherDisplay:10.37,2013-01-17 11:00:00,
2013-01-17 06:05:00,59.9,59.0,29.95,SW,225,0.0,0.0,97,0.00,CLR,,0.00,WeatherDisplay:10.37,2013-01-17 11:05:00,
2013-01-17 06:10:00,59.9,59.0,29.95,SW,225,0.0,0.0,97,0.00,CLR,,0.00,WeatherDisplay:10.37,2013-01-17 11:10:00,
2013-01-17 06:15:00,59.7,58.9,29.95,SW,225,0.0,0.0,97,0.00,CLR,,0.00,WeatherDisplay:10.37,2013-01-17 11:15:00,
2013-01-17 06:20:00,59.7,58.9,29.95,SW,225,0.0,0.0,97,0.00,CLR,,0.00,WeatherDisplay:10.37,2013-01-17 11:20:00,
2013-01-17 06:25:00,59.7,58.9,29.95,SW,225,0.0,0.0,97,0.00,CLR,,0.00,WeatherDisplay:10.37,2013-01-17 11:25:00,
2013-01-17 06:30:00,59.5,58.7,29.95,SW,225,0.0,0.0,97,0.00,CLR,,0.00,WeatherDisplay:10.37,2013-01-17 11:30:00,
2013-01-17 06:35:00,59.5,58.7,29.95,SW,225,0.0,0.0,97,0.00,CLR,,0.00,WeatherDisplay:10.37,2013-01-17 11:35:00,
2013-01-17 06:40:00,59.4,58.5,29.95,SW,225,0.0,0.0,97,0.00,CLR,,0.00,WeatherDisplay:10.37,2013-01-17 11:40:00,
2013-01-17 06:45:00,59.4,58.5,29.95,SW,225,0.0,0.0,97,0.00,CLR,,0.00,WeatherDisplay:10.37,2013-01-17 11:45:00,
2013-01-17 06:50:00,59.4,58.5,29.95,SW,225,0.0,0.0,97,0.00,CLR,,0.00,WeatherDisplay:10.37,2013-01-17 11:50:00,
2013-01-17 06:55:00,59.2,58.3,29.95,SW,225,0.0,0.0,97,0.00,CLR,,0.00,WeatherDisplay:10.37,2013-01-17 11:55:00,
2013-01-17 07:00:00,59.4,58.5,29.95,SW,225,0.0,0.0,97,0.00,CLR,,0.00,WeatherDisplay:10.37,2013-01-17 12:00:00,
2013-01-17 07:05:00,59.4,58.5,29.94,SW,225,0.0,1.1,97,0.00,CLR,,0.00,WeatherDisplay:10.37,2013-01-17 12:05:00,
2013-01-17 07:10:00,59.4,58.5,29.95,SW,225,0.0,1.1,97,0.00,CLR,,0.00,WeatherDisplay:10.37,2013-01-17 12:10:00,
2013-01-17 07:15:00,59.5,58.7,29.95,SW,225,0.0,0.0,97,0.00,CLR,,0.00,WeatherDisplay:10.37,2013-01-17 12:15:00,
2013-01-17 07:20:00,59.5,58.7,29.95,SW,225,0.0,2.8,97,0.00,CLR,,0.00,WeatherDisplay:10.37,2013-01-17 12:20:00,
2013-01-17 07:25:00,59.7,58.9,29.95,SW,225,1.1,21.9,97,0.00,CLR,,0.00,WeatherDisplay:10.37,2013-01-17 12:25:00,
2013-01-17 07:30:00,60.1,59.2,29.94,SW,225,0.1,21.9,97,0.00,CLR,,0.00,WeatherDisplay:10.37,2013-01-17 12:30:00,
2013-01-17 07:35:00,60.1,59.2,29.94,SW,225,0.1,1.4,97,0.00,CLR,,0.00,WeatherDisplay:10.37,2013-01-17 12:35:00,
2013-01-17 07:40:00,60.1,59.2,29.94,SW,225,0.1,1.1,97,0.00,CLR,,0.00,WeatherDisplay:10.37,2013-01-17 12:40:00,
2013-01-17 07:45:00,60.3,59.4,29.94,South,180,0.1,1.1,97,0.00,CLR,,0.00,WeatherDisplay:10.37,2013-01-17 12:45:00,
2013-01-17 07:50:00,60.3,59.4,29.94,South,180,0.0,0.0,97,0.00,CLR,,0.00,WeatherDisplay:10.37,2013-01-17 12:50:00,
2013-01-17 07:55:00,60.3,59.4,29.94,South,180,0.0,0.0,97,0.00,CLR,,0.00,WeatherDisplay:10.37,2013-01-17 12:55:00,
2013-01-17 08:00:00,60.6,59.8,29.95,South,180,0.0,0.0,97,0.00,CLR,,0.00,WeatherDisplay:10.37,2013-01-17 13:00:00,
2013-01-17 08:05:00,60.6,59.8,29.95,South,180,0.4,2.8,97,0.00,FEW,,0.00,WeatherDisplay:10.37,2013-01-17 13:05:00,
2013-01-17 08:10:00,60.6,59.8,29.95,South,180,0.4,2.8,97,0.00,FEW,,0.00,WeatherDisplay:10.37,2013-01-17 13:10:00,
2013-01-17 08:15:00,60.8,59.9,29.95,South,180,1.5,22.4,97,0.00,FEW,,0.00,WeatherDisplay:10.37,2013-01-17 13:15:00,
2013-01-17 08:20:00,61.2,60.6,29.95,South,180,1.9,44.9,98,0.00,FEW,,0.00,WeatherDisplay:10.37,2013-01-17 13:20:00,
2013-01-17 08:25:00,61.5,61.0,29.95,South,180,1.7,44.9,98,0.00,FEW,,0.00,WeatherDisplay:10.37,2013-01-17 13:25:00,
2013-01-17 08:30:00,61.5,60.7,29.95,South,180,0.0,0.0,97,0.00,FEW,,0.00,WeatherDisplay:10.37,2013-01-17 13:30:00,
2013-01-17 08:35:00,61.7,60.8,29.95,South,180,0.0,0.0,97,0.00,FEW,,0.00,WeatherDisplay:10.37,2013-01-17 13:35:00,
2013-01-17 08:40:00,61.7,60.8,29.95,South,180,0.0,0.0,97,0.00,FEW,,0.00,WeatherDisplay:10.37,2013-01-17 13:40:00,
2013-01-17 08:45:00,62.2,61.4,29.95,SE,135,0.0,0.0,97,0.00,FEW,,0.00,WeatherDisplay:10.37,2013-01-17 13:45:00,
2013-01-17 08:50:00,62.8,61.6,29.95,East,90,0.2,2.3,96,0.00,FEW,,0.00,WeatherDisplay:10.37,2013-01-17 13:50:00,
2013-01-17 08:55:00,63.1,62.0,29.96,East,90,0.2,2.3,96,0.00,FEW,,0.00,WeatherDisplay:10.37,2013-01-17 13:55:00,
2013-01-17 09:00:00,63.5,62.0,29.96,South,180,0.4,2.3,95,0.00,FEW,,0.00,WeatherDisplay:10.37,2013-01-17 14:00:00,
2013-01-17 09:05:00,64.4,62.6,29.95,South,180,0.2,4.6,94,0.00,FEW,,0.00,WeatherDisplay:10.37,2013-01-17 14:05:00,
2013-01-17 09:10:00,64.8,62.7,29.95,West,270,0.3,2.3,93,0.00,FEW,,0.00,WeatherDisplay:10.37,2013-01-17 14:10:00,
2013-01-17 09:15:00,65.5,63.4,29.95,South,180,0.8,4.6,93,0.00,FEW,,0.00,WeatherDisplay:10.37,2013-01-17 14:15:00,
2013-01-17 09:20:00,66.0,63.3,29.96,South,180,0.9,4.6,91,0.00,FEW,,0.00,WeatherDisplay:10.37,2013-01-17 14:20:00,
2013-01-17 09:25:00,66.4,63.4,29.95,South,180,0.7,4.6,90,0.00,FEW,,0.00,WeatherDisplay:10.37,2013-01-17 14:25:00,
2013-01-17 09:30:00,67.3,63.6,29.95,SE,135,0.7,4.6,88,0.00,FEW,,0.00,WeatherDisplay:10.37,2013-01-17 14:30:00,
2013-01-17 09:35:00,67.8,63.8,29.95,SE,135,0.4,4.6,87,0.00,FEW,,0.00,WeatherDisplay:10.37,2013-01-17 14:35:00,
2013-01-17 09:40:00,68.5,63.8,29.95,East,90,0.6,2.3,85,0.00,FEW,,0.00,WeatherDisplay:10.37,2013-01-17 14:40:00,
2013-01-17 09:45:00,69.1,63.4,29.95,East,90,1.3,5.8,82,0.00,FEW,,0.00,WeatherDisplay:10.37,2013-01-17 14:45:00,
2013-01-17 09:50:00,69.4,63.7,29.95,SW,225,2.7,5.8,82,0.00,FEW,,0.00,WeatherDisplay:10.37,2013-01-17 14:50:00,
2013-01-17 09:55:00,70.0,63.9,29.95,SW,225,2.2,21.9,81,0.00,FEW,,0.00,WeatherDisplay:10.37,2013-01-17 14:55:00,
2013-01-17 10:00:00,70.3,63.9,29.95,West,270,2.4,21.9,80,0.00,FEW,,0.00,WeatherDisplay:10.37,2013-01-17 15:00:00,
2013-01-17 10:05:00,71.2,64.8,29.95,SE,135,0.7,8.1,80,0.00,FEW,,0.00,WeatherDisplay:10.37,2013-01-17 15:05:00,
2013-01-17 10:10:00,72.1,64.9,29.95,SE,135,1.1,5.8,78,0.00,FEW,,0.00,WeatherDisplay:10.37,2013-01-17 15:10:00,
2013-01-17 10:15:00,72.7,64.3,29.95,West,270,2.3,5.8,75,0.00,FEW,,0.00,WeatherDisplay:10.37,2013-01-17 15:15:00,
2013-01-17 10:20:00,72.7,64.3,29.94,SW,225,1.3,5.8,75,0.00,FEW,,0.00,WeatherDisplay:10.37,2013-01-17 15:20:00,
2013-01-17 10:25:00,72.7,63.9,29.94,SW,225,0.9,5.8,74,0.00,FEW,,0.00,WeatherDisplay:10.37,2013-01-17 15:25:00,
2013-01-17 10:30:00,73.0,64.6,29.94,SE,135,1.1,3.5,75,0.00,FEW,,0.00,WeatherDisplay:10.37,2013-01-17 15:30:00,
2013-01-17 10:35:00,73.0,64.6,29.94,SW,225,2.4,5.8,75,0.00,FEW,,0.00,WeatherDisplay:10.37,2013-01-17 15:35:00,
2013-01-17 10:40:00,73.0,64.6,29.94,SW,225,2.4,5.8,75,0.00,FEW,,0.00,WeatherDisplay:10.37,2013-01-17 15:40:00,
2013-01-17 10:45:00,74.5,64.9,29.93,SW,225,5.3,44.9,72,0.00,FEW,,0.00,WeatherDisplay:10.37,2013-01-17 15:45:00,
2013-01-17 10:50:00,74.3,65.1,29.93,South,180,3.5,44.9,73,0.00,BKN,,0.00,WeatherDisplay:10.37,2013-01-17 15:50:00,
2013-01-17 10:55:00,74.3,65.9,29.92,SW,225,3.1,44.9,75,0.00,BKN,,0.00,WeatherDisplay:10.37,2013-01-17 15:55:00,
2013-01-17 11:00:00,73.9,65.5,29.93,West,270,3.7,5.8,75,0.00,BKN,,0.00,WeatherDisplay:10.37,2013-01-17 16:00:00,
2013-01-17 11:05:00,73.9,65.5,29.92,SW,225,7.1,8.1,75,0.00,BKN,,0.00,WeatherDisplay:10.37,2013-01-17 16:05:00,
2013-01-17 11:10:00,73.9,65.5,29.92,SW,225,7.1,8.1,75,0.00,BKN,,0.00,WeatherDisplay:10.37,2013-01-17 16:10:00,
2013-01-17 11:15:00,73.9,65.9,29.92,SW,225,4.7,44.8,76,0.00,BKN,,0.00,WeatherDisplay:10.37,2013-01-17 16:15:00,
2013-01-17 11:20:00,73.9,65.9,29.92,SW,225,11.6,44.9,76,0.00,BKN,,0.00,WeatherDisplay:10.37,2013-01-17 16:20:00,
2013-01-17 11:25:00,73.6,65.2,29.92,SW,225,5.9,44.9,75,0.00,BKN,,0.00,WeatherDisplay:10.37,2013-01-17 16:25:00,
2013-01-17 11:30:00,73.2,65.6,29.91,West,270,2.7,5.8,77,0.00,BKN,,0.00,WeatherDisplay:10.37,2013-01-17 16:30:00,
2013-01-17 11:35:00,73.2,65.6,29.91,SW,225,5.5,5.8,77,0.00,BKN,,0.00,WeatherDisplay:10.37,2013-01-17 16:35:00,
2013-01-17 11:40:00,73.2,65.6,29.91,SW,225,5.5,5.8,77,0.00,BKN,,0.00,WeatherDisplay:10.37,2013-01-17 16:40:00,
2013-01-17 11:45:00,73.2,65.2,29.91,SW,225,4.2,44.9,76,0.00,BKN,,0.00,WeatherDisplay:10.37,2013-01-17 16:45:00,
2013-01-17 11:50:00,72.9,65.2,29.91,SW,225,3.2,44.9,77,0.00,BKN,,0.00,WeatherDisplay:10.37,2013-01-17 16:50:00,
2013-01-17 11:55:00,72.3,65.1,29.90,SW,225,6.8,11.5,78,0.00,BKN,,0.00,WeatherDisplay:10.37,2013-01-17 16:55:00,
2013-01-17 12:00:00,72.0,65.1,29.91,SW,225,3.7,11.5,79,0.00,BKN,,0.00,WeatherDisplay:10.37,2013-01-17 17:00:00,
2013-01-17 12:05:00,71.2,65.1,29.91,SW,225,7.4,11.5,81,0.00,BKN,,0.00,WeatherDisplay:10.37,2013-01-17 17:05:00,
2013-01-17 12:10:00,70.0,64.2,29.91,SW,225,7.6,11.5,82,0.00,BKN,,0.00,WeatherDisplay:10.37,2013-01-17 17:10:00,
2013-01-17 12:15:00,68.5,63.2,29.91,SW,225,4.6,11.5,83,0.00,BKN,,0.00,WeatherDisplay:10.37,2013-01-17 17:15:00,
2013-01-17 12:20:00,68.0,63.0,29.91,SW,225,3.2,11.5,84,0.00,BKN,,0.00,WeatherDisplay:10.37,2013-01-17 17:20:00,
2013-01-17 12:25:00,67.6,62.6,29.91,SW,225,2.7,8.1,84,0.00,BKN,,0.00,WeatherDisplay:10.37,2013-01-17 17:25:00,
2013-01-17 12:30:00,67.3,62.6,29.91,SW,225,2.1,5.8,85,0.00,BKN,,0.00,WeatherDisplay:10.37,2013-01-17 17:30:00,
2013-01-17 12:31:00,66.7,62.1,29.91,SW,225,2.2,5.8,85,0.00,BKN,,0.00,WeatherDisplay:10.37,2013-01-17 17:31:00,
2013-01-17 12:35:00,66.7,62.1,29.91,SW,225,2.2,5.8,85,0.00,BKN,,0.00,WeatherDisplay:10.37,2013-01-17 17:35:00,
2013-01-17 12:40:00,66.7,62.1,29.91,SW,225,2.2,5.8,85,0.00,BKN,,0.00,WeatherDisplay:10.37,2013-01-17 17:40:00,
2013-01-17 12:45:00,65.8,62.5,29.91,SW,225,3.5,11.5,89,0.00,BKN,,0.00,WeatherDisplay:10.37,2013-01-17 17:45:00,
2013-01-17 12:50:00,64.8,61.1,29.91,South,180,6.7,21.9,88,0.00,BKN,,0.00,WeatherDisplay:10.37,2013-01-17 17:50:00,
2013-01-17 12:55:00,64.8,61.1,29.91,South,180,6.7,21.9,88,0.00,BKN,,0.00,WeatherDisplay:10.37,2013-01-17 17:55:00,
2013-01-17 13:00:00,64.2,60.6,29.90,SW,225,2.9,21.9,88,0.00,BKN,,0.00,WeatherDisplay:10.37,2013-01-17 18:00:00,
2013-01-17 13:05:00,64.2,59.6,29.90,SW,225,4.8,11.5,85,0.00,BKN,,0.00,WeatherDisplay:10.37,2013-01-17 18:05:00,
2013-01-17 13:10:00,63.9,59.3,29.91,SW,225,2.5,11.5,85,0.00,BKN,,0.00,WeatherDisplay:10.37,2013-01-17 18:10:00,
2013-01-17 13:15:00,63.7,58.8,29.90,SW,225,2.3,11.5,84,0.00,OVC,,0.00,WeatherDisplay:10.37,2013-01-17 18:15:00,
2013-01-17 13:20:00,63.7,59.1,29.90,SW,225,3.7,11.5,85,0.00,OVC,,0.00,WeatherDisplay:10.37,2013-01-17 18:20:00,
2013-01-17 13:25:00,63.1,58.9,29.90,West,270,2.2,11.5,86,0.00,OVC,,0.00,WeatherDisplay:10.37,2013-01-17 18:25:00,
2013-01-17 13:30:00,62.8,58.9,29.90,SW,225,2.3,5.8,87,0.00,OVC,,0.00,WeatherDisplay:10.37,2013-01-17 18:30:00,
2013-01-17 13:35:00,62.8,58.9,29.91,SW,225,2.8,5.8,87,0.00,OVC,,0.00,WeatherDisplay:10.37,2013-01-17 18:35:00,
2013-01-17 13:40:00,62.2,59.0,29.91,West,270,2.6,5.8,89,0.00,OVC,,0.00,WeatherDisplay:10.37,2013-01-17 18:40:00,
2013-01-17 13:45:00,60.4,57.8,29.91,South,180,3.1,11.5,91,0.00,OVC,,0.00,WeatherDisplay:10.37,2013-01-17 18:45:00,
2013-01-17 13:50:00,59.7,57.1,29.91,West,270,5.9,11.5,91,0.00,OVC,,0.00,WeatherDisplay:10.37,2013-01-17 18:50:00,
2013-01-17 14:03:00,59.2,56.9,29.92,West,270,2.3,8.4,92,0.00,OVC,,0.00,WeatherDisplay:10.37,2013-01-17 19:03:00,
2013-01-17 14:08:00,58.6,56.0,29.92,West,270,4.6,8.4,91,0.00,OVC,,0.00,WeatherDisplay:10.37,2013-01-17 19:08:00,
2013-01-17 14:13:00,57.0,54.7,29.92,West,270,2.3,8.1,92,0.00,OVC,,0.00,WeatherDisplay:10.37,2013-01-17 19:13:00,
2013-01-17 14:18:00,56.8,54.5,29.92,West,270,2.5,5.8,92,0.00,OVC,,0.00,WeatherDisplay:10.37,2013-01-17 19:18:00,
2013-01-17 14:23:00,56.7,54.4,29.92,SW,225,2.5,5.8,92,0.00,OVC,,0.00,WeatherDisplay:10.37,2013-01-17 19:23:00,
2013-01-17 14:28:00,56.8,54.2,29.92,SW,225,2.4,5.8,91,0.00,OVC,,0.00,WeatherDisplay:10.37,2013-01-17 19:28:00,
2013-01-17 14:33:00,57.0,54.4,29.92,SW,225,2.3,11.5,91,0.00,OVC,,0.00,WeatherDisplay:10.37,2013-01-17 19:33:00,
2013-01-17 14:38:00,57.2,53.7,29.92,SW,225,2.4,5.8,88,0.00,-RA,,0.00,WeatherDisplay:10.37,2013-01-17 19:38:00,
2013-01-17 14:43:00,57.6,54.3,29.92,SW,225,2.3,5.8,89,0.00,-RA,,0.00,WeatherDisplay:10.37,2013-01-17 19:43:00,
2013-01-17 14:48:00,57.7,54.2,29.92,SW,225,2.7,5.8,88,0.00,-RA,,0.00,WeatherDisplay:10.37,2013-01-17 19:48:00,
2013-01-17 14:53:00,57.7,54.5,29.91,SW,225,2.2,5.8,89,0.00,-RA,,0.00,WeatherDisplay:10.37,2013-01-17 19:53:00,
2013-01-17 14:58:00,57.7,54.2,29.92,South,180,4.1,5.8,88,0.00,-RA,,0.00,WeatherDisplay:10.37,2013-01-17 19:58:00,
2013-01-17 15:03:00,57.7,54.2,29.92,South,180,4.1,5.8,88,0.00,-RA,,0.00,WeatherDisplay:10.37,2013-01-17 20:03:00,
2013-01-17 15:08:00,57.4,53.9,29.92,SW,225,3.8,5.8,88,0.00,-RA,,0.00,WeatherDisplay:10.37,2013-01-17 20:08:00,
2013-01-17 15:13:00,56.8,53.0,29.92,West,270,3.4,5.8,87,0.00,OVC,,0.00,WeatherDisplay:10.37,2013-01-17 20:13:00,
2013-01-17 15:18:00,56.8,52.4,29.93,SW,225,1.4,5.8,85,0.00,OVC,,0.00,WeatherDisplay:10.37,2013-01-17 20:18:00,
2013-01-17 15:23:00,57.0,52.9,29.92,West,270,1.1,5.8,86,0.00,OVC,,0.00,WeatherDisplay:10.37,2013-01-17 20:23:00,
2013-01-17 15:28:00,57.0,52.2,29.93,SW,225,0.9,2.8,84,0.00,OVC,,0.00,WeatherDisplay:10.37,2013-01-17 20:28:00,
2013-01-17 15:33:00,57.0,51.9,29.93,SW,225,1.3,5.6,83,0.00,OVC,,0.00,WeatherDisplay:10.37,2013-01-17 20:33:00,
2013-01-17 15:38:00,57.2,51.8,29.93,West,270,1.7,5.8,82,0.00,OVC,,0.00,WeatherDisplay:10.37,2013-01-17 20:38:00,
2013-01-17 15:43:00,57.2,51.4,29.93,West,270,3.0,5.8,81,0.00,OVC,,0.00,WeatherDisplay:10.37,2013-01-17 20:43:00,
2013-01-17 15:48:00,57.4,51.6,29.93,West,270,2.8,5.8,81,0.00,OVC,,0.00,WeatherDisplay:10.37,2013-01-17 20:48:00,
2013-01-17 15:53:00,57.4,51.3,29.94,West,270,5.7,5.8,80,0.00,OVC,,0.00,WeatherDisplay:10.37,2013-01-17 20:53:00,
2013-01-17 15:58:00,57.4,51.3,29.94,West,270,5.7,5.8,80,0.00,OVC,,0.00,WeatherDisplay:10.37,2013-01-17 20:58:00,
2013-01-17 16:03:00,57.6,50.8,29.93,West,270,8.1,89.6,78,0.00,OVC,,0.00,WeatherDisplay:10.37,2013-01-17 21:03:00,
2013-01-17 16:08:00,57.4,49.9,29.93,SW,225,3.7,44.9,76,0.00,OVC,,0.00,WeatherDisplay:10.37,2013-01-17 21:08:00,
2013-01-17 16:13:00,57.6,50.0,29.93,SW,225,3.5,44.9,76,0.00,OVC,,0.00,WeatherDisplay:10.37,2013-01-17 21:13:00,
2013-01-17 16:18:00,57.7,49.1,29.94,West,270,4.1,44.9,73,0.00,OVC,,0.00,WeatherDisplay:10.37,2013-01-17 21:18:00,
2013-01-17 16:23:00,57.7,48.4,29.94,SW,225,5.1,44.9,71,0.00,OVC,,0.00,WeatherDisplay:10.37,2013-01-17 21:23:00,
2013-01-17 16:28:00,57.7,49.1,29.93,SW,225,3.0,21.9,73,0.00,OVC,,0.00,WeatherDisplay:10.37,2013-01-17 21:28:00,
2013-01-17 16:33:00,57.6,48.6,29.94,SW,225,2.1,11.5,72,0.00,OVC,,0.00,WeatherDisplay:10.37,2013-01-17 21:33:00,
2013-01-17 16:38:00,57.6,49.0,29.93,SW,225,3.8,5.8,73,0.00,OVC,,0.00,WeatherDisplay:10.37,2013-01-17 21:38:00,
2013-01-17 16:43:00,57.6,48.6,29.94,SW,225,3.8,21.9,72,0.00,OVC,,0.00,WeatherDisplay:10.37,2013-01-17 21:43:00,
2013-01-17 16:48:00,57.6,48.6,29.93,SW,225,4.1,44.9,72,0.00,OVC,,0.00,WeatherDisplay:10.37,2013-01-17 21:48:00,
2013-01-17 16:53:00,57.4,48.4,29.93,SW,225,2.0,5.8,72,0.00,OVC,,0.00,WeatherDisplay:10.37,2013-01-17 21:53:00,
2013-01-17 16:58:00,57.7,48.4,29.93,SW,225,1.7,5.8,71,0.00,OVC,,0.00,WeatherDisplay:10.37,2013-01-17 21:58:00,
2013-01-17 17:03:00,58.1,48.0,29.93,SW,225,1.8,5.8,69,0.00,OVC,,0.00,WeatherDisplay:10.37,2013-01-17 22:03:00,
2013-01-17 17:08:00,57.9,47.4,29.93,SW,225,2.2,5.8,68,0.00,OVC,,0.00,WeatherDisplay:10.37,2013-01-17 22:08:00,
2013-01-17 17:13:00,57.7,47.2,29.94,South,180,3.8,17.3,68,0.00,OVC,,0.00,WeatherDisplay:10.37,2013-01-17 22:13:00,
2013-01-17 17:18:00,57.6,47.5,29.95,SW,225,3.8,33.4,69,0.00,OVC,,0.00,WeatherDisplay:10.37,2013-01-17 22:18:00,
2013-01-17 17:23:00,57.6,47.5,29.94,SW,225,2.3,11.5,69,0.00,OVC,,0.00,WeatherDisplay:10.37,2013-01-17 22:23:00,
2013-01-17 17:28:00,57.6,47.8,29.94,SW,225,5.0,11.5,70,0.00,BKN,,0.00,WeatherDisplay:10.37,2013-01-17 22:28:00,
2013-01-17 17:33:00,57.4,48.1,29.94,SW,225,6.6,22.4,71,0.00,BKN,,0.00,WeatherDisplay:10.37,2013-01-17 22:33:00,
2013-01-17 17:38:00,57.4,47.3,29.94,SW,225,6.3,21.9,69,0.00,BKN,,0.00,WeatherDisplay:10.37,2013-01-17 22:38:00,
2013-01-17 17:43:00,57.4,47.3,29.94,SW,225,6.3,21.9,69,0.00,BKN,,0.00,WeatherDisplay:10.37,2013-01-17 22:43:00,
2013-01-17 17:48:00,56.8,46.4,29.94,SW,225,2.3,21.9,68,0.00,BKN,,0.00,WeatherDisplay:10.37,2013-01-17 22:48:00,
2013-01-17 17:53:00,56.8,46.0,29.94,SW,225,2.0,5.8,67,0.00,BKN,,0.00,WeatherDisplay:10.37,2013-01-17 22:53:00,
2013-01-17 17:58:00,56.5,45.3,29.95,SW,225,2.1,5.8,66,0.00,BKN,,0.00,WeatherDisplay:10.37,2013-01-17 22:58:00,
2013-01-17 18:03:00,56.3,44.7,29.95,SW,225,2.2,5.8,65,0.00,BKN,,0.00,WeatherDisplay:10.37,2013-01-17 23:03:00,
2013-01-17 18:08:00,56.1,44.9,29.95,SW,225,2.1,5.8,66,0.00,BKN,,0.00,WeatherDisplay:10.37,2013-01-17 23:08:00,
2013-01-17 18:13:00,55.6,45.2,29.96,SW,225,1.3,11.5,68,0.00,BKN,,0.00,WeatherDisplay:10.37,2013-01-17 23:13:00,
2013-01-17 18:18:00,55.6,45.2,29.96,SW,225,1.1,5.8,68,0.00,BKN,,0.00,WeatherDisplay:10.37,2013-01-17 23:18:00,
2013-01-17 18:23:00,55.2,44.8,29.96,SW,225,1.7,11.5,68,0.00,BKN,,0.00,WeatherDisplay:10.37,2013-01-17 23:23:00,
2013-01-17 18:28:00,55.2,44.8,29.96,SW,225,1.8,11.5,68,0.00,BKN,,0.00,WeatherDisplay:10.37,2013-01-17 23:28:00,
2013-01-17 18:33:00,55.0,45.1,29.96,SW,225,3.9,11.5,69,0.00,BKN,,0.00,WeatherDisplay:10.37,2013-01-17 23:33:00,
2013-01-17 18:38:00,54.7,45.8,29.97,SW,225,6.3,89.6,72,0.00,BKN,,0.00,WeatherDisplay:10.37,2013-01-17 23:38:00,
2013-01-17 18:43:00,54.5,45.7,29.97,SW,225,2.8,44.9,72,0.00,BKN,,0.00,WeatherDisplay:10.37,2013-01-17 23:43:00,
2013-01-17 18:56:00,54.1,45.7,29.97,SW,225,0.8,44.9,73,0.00,BKN,,0.00,WeatherDisplay:10.37,2013-01-17 23:56:00,
2013-01-17 19:01:00,54.0,45.9,29.98,SW,225,1.0,2.8,74,0.00,BKN,,0.00,WeatherDisplay:10.37,2013-01-18 00:01:00,
2013-01-17 19:06:00,53.8,45.7,29.97,SW,225,0.9,5.8,74,0.00,BKN,,0.00,WeatherDisplay:10.37,2013-01-18 00:06:00,
2013-01-17 19:11:00,53.6,45.5,29.98,SW,225,2.3,21.7,74,0.00,BKN,,0.00,WeatherDisplay:10.37,2013-01-18 00:11:00,
2013-01-17 19:16:00,53.6,45.5,29.98,SW,225,2.3,21.7,74,0.00,BKN,,0.00,WeatherDisplay:10.37,2013-01-18 00:16:00,
2013-01-17 19:21:00,53.6,45.5,29.99,SW,225,2.4,43.7,74,0.00,BKN,,0.00,WeatherDisplay:10.37,2013-01-18 00:21:00,
2013-01-17 19:26:00,53.4,45.7,29.99,SW,225,2.9,43.7,75,0.00,BKN,,0.00,WeatherDisplay:10.37,2013-01-18 00:26:00,
2013-01-17 19:31:00,53.4,45.7,29.99,SW,225,3.2,43.7,75,0.00,BKN,,0.00,WeatherDisplay:10.37,2013-01-18 00:31:00,
2013-01-17 19:36:00,53.2,45.9,30.00,SW,225,2.2,4.6,76,0.00,BKN,,0.00,WeatherDisplay:10.37,2013-01-18 00:36:00,
2013-01-17 19:41:00,53.2,45.9,30.00,West,270,1.6,5.8,76,0.00,BKN,,0.00,WeatherDisplay:10.37,2013-01-18 00:41:00,
2013-01-17 19:46:00,53.1,45.7,30.00,SW,225,1.7,5.8,76,0.00,BKN,,0.00,WeatherDisplay:10.37,2013-01-18 00:46:00,
2013-01-17 19:51:00,52.9,45.9,30.00,SW,225,3.2,5.8,77,0.00,BKN,,0.00,WeatherDisplay:10.37,2013-01-18 00:51:00,
2013-01-17 19:56:00,52.7,45.7,30.00,SW,225,4.1,11.5,77,0.00,BKN,,0.00,WeatherDisplay:10.37,2013-01-18 00:56:00,
2013-01-17 20:01:00,52.7,45.7,30.00,SW,225,2.7,11.5,77,0.00,BKN,,0.00,WeatherDisplay:10.37,2013-01-18 01:01:00,
2013-01-17 20:06:00,52.5,45.5,30.00,SW,225,2.7,11.5,77,0.00,BKN,,0.00,WeatherDisplay:10.37,2013-01-18 01:06:00,
2013-01-17 20:11:00,52.5,45.5,30.01,West,270,2.1,5.8,77,0.00,BKN,,0.00,WeatherDisplay:10.37,2013-01-18 01:11:00,
2013-01-17 20:16:00,52.5,45.5,30.01,SW,225,4.1,5.8,77,0.00,BKN,,0.00,WeatherDisplay:10.37,2013-01-18 01:16:00,
2013-01-17 20:21:00,52.2,45.2,30.01,SW,225,4.2,21.9,77,0.00,BKN,,0.00,WeatherDisplay:10.37,2013-01-18 01:21:00,
2013-01-17 20:26:00,52.0,45.0,30.01,SW,225,4.1,44.9,77,0.00,BKN,,0.00,WeatherDisplay:10.37,2013-01-18 01:26:00,
2013-01-17 20:31:00,52.0,45.3,30.02,SW,225,1.7,44.9,78,0.00,BKN,,0.00,WeatherDisplay:10.37,2013-01-18 01:31:00,
2013-01-17 20:36:00,52.0,45.3,30.02,SW,225,1.4,4.6,78,0.00,BKN,,0.00,WeatherDisplay:10.37,2013-01-18 01:36:00,
2013-01-17 20:41:00,51.6,45.0,30.02,SW,225,1.4,4.6,78,0.00,BKN,,0.00,WeatherDisplay:10.37,2013-01-18 01:41:00,
2013-01-17 20:46:00,51.6,45.0,30.02,SW,225,1.6,5.8,78,0.00,BKN,,0.00,WeatherDisplay:10.37,2013-01-18 01:46:00,
2013-01-17 20:51:00,51.4,44.8,30.03,SW,225,1.6,5.8,78,0.00,BKN,,0.00,WeatherDisplay:10.37,2013-01-18 01:51:00,
2013-01-17 20:56:00,51.4,44.8,30.03,SW,225,1.8,5.8,78,0.00,BKN,,0.00,WeatherDisplay:10.37,2013-01-18 01:56:00,
2013-01-17 21:01:00,51.4,44.8,30.03,SW,225,1.8,5.8,78,0.00,BKN,,0.00,WeatherDisplay:10.37,2013-01-18 02:01:00,
2013-01-17 21:06:00,51.1,44.8,30.03,SW,225,3.7,22.4,79,0.00,BKN,,0.00,WeatherDisplay:10.37,2013-01-18 02:06:00,
2013-01-17 21:11:00,51.1,44.8,30.04,SW,225,3.2,44.9,79,0.00,BKN,,0.00,WeatherDisplay:10.37,2013-01-18 02:11:00,
2013-01-17 21:16:00,50.9,44.6,30.04,SW,225,3.2,44.9,79,0.00,BKN,,0.00,WeatherDisplay:10.37,2013-01-18 02:16:00,
2013-01-17 21:21:00,50.7,44.4,30.05,SW,225,6.0,44.9,79,0.00,BKN,,0.00,WeatherDisplay:10.37,2013-01-18 02:21:00,
2013-01-17 21:26:00,50.7,44.4,30.05,SW,225,6.0,44.9,79,0.00,BKN,,0.00,WeatherDisplay:10.37,2013-01-18 02:26:00,
2013-01-17 21:31:00,50.5,44.3,30.05,SW,225,0.8,2.7,79,0.00,BKN,,0.00,WeatherDisplay:10.37,2013-01-18 02:31:00,
2013-01-17 21:36:00,50.5,44.3,30.05,SW,225,1.1,2.8,79,0.00,SCT,,0.00,WeatherDisplay:10.37,2013-01-18 02:36:00,
2013-01-17 21:41:00,50.5,44.3,30.05,SW,225,1.1,2.8,79,0.00,SCT,,0.00,WeatherDisplay:10.37,2013-01-18 02:41:00,
2013-01-17 21:46:00,50.4,44.1,30.05,SW,225,2.2,43.5,79,0.00,SCT,,0.00,WeatherDisplay:10.37,2013-01-18 02:46:00,
2013-01-17 21:51:00,50.2,43.6,30.06,SW,225,3.5,86.9,78,0.00,SCT,,0.00,WeatherDisplay:10.37,2013-01-18 02:51:00,
2013-01-17 21:56:00,50.2,43.6,30.06,SW,225,3.5,86.9,78,0.00,SCT,,0.00,WeatherDisplay:10.37,2013-01-18 02:56:00,
2013-01-17 22:01:00,50.2,43.6,30.07,NW,315,3.4,43.7,78,0.00,SCT,,0.00,WeatherDisplay:10.37,2013-01-18 03:01:00,
2013-01-17 22:06:00,49.3,40.3,30.08,West,270,2.9,43.7,71,0.00,SCT,,0.00,WeatherDisplay:10.37,2013-01-18 03:06:00,
2013-01-17 22:11:00,49.1,40.1,30.08,West,270,6.2,43.7,71,0.00,SCT,,0.00,WeatherDisplay:10.37,2013-01-18 03:11:00,
2013-01-17 22:16:00,48.0,38.7,30.08,West,270,1.9,2.8,70,0.00,BKN,,0.00,WeatherDisplay:10.37,2013-01-18 03:16:00,
2013-01-17 22:21:00,47.3,38.0,30.09,West,270,2.3,5.8,70,0.00,BKN,,0.00,WeatherDisplay:10.37,2013-01-18 03:21:00,
2013-01-17 22:26:00,46.8,38.2,30.09,SW,225,2.1,11.5,72,0.00,BKN,,0.00,WeatherDisplay:10.37,2013-01-18 03:26:00,
2013-01-17 22:31:00,46.2,37.7,30.09,West,270,1.8,11.5,72,0.00,BKN,,0.00,WeatherDisplay:10.37,2013-01-18 03:31:00,
2013-01-17 22:36:00,46.0,37.2,30.09,West,270,2.1,5.8,71,0.00,BKN,,0.00,WeatherDisplay:10.37,2013-01-18 03:36:00,
2013-01-17 22:41:00,45.7,37.2,30.10,West,270,1.9,5.8,72,0.00,BKN,,0.00,WeatherDisplay:10.37,2013-01-18 03:41:00,
2013-01-17 22:46:00,45.3,36.8,30.10,West,270,4.2,22.4,72,0.00,BKN,,0.00,WeatherDisplay:10.37,2013-01-18 03:46:00,
2013-01-17 22:51:00,45.3,36.8,30.10,West,270,4.2,22.4,72,0.00,BKN,,0.00,WeatherDisplay:10.37,2013-01-18 03:51:00,
2013-01-17 22:56:00,45.0,36.8,30.11,West,270,6.2,89.6,73,0.00,BKN,,0.00,WeatherDisplay:10.37,2013-01-18 03:56:00,
2013-01-17 23:01:00,44.4,36.0,30.11,North,0,2.1,44.9,72,0.00,BKN,,0.00,WeatherDisplay:10.37,2013-01-18 04:01:00,
2013-01-17 23:06:00,44.2,35.8,30.11,South,180,0.8,2.3,72,0.00,BKN,,0.00,WeatherDisplay:10.37,2013-01-18 04:06:00,
2013-01-17 23:11:00,44.2,36.1,30.12,West,270,0.6,2.3,73,0.00,BKN,,0.00,WeatherDisplay:10.37,2013-01-18 04:11:00,
2013-01-17 23:16:00,43.9,35.4,30.12,NW,315,1.2,2.3,72,0.00,BKN,,0.00,WeatherDisplay:10.37,2013-01-18 04:16:00,
2013-01-17 23:21:00,43.9,35.8,30.11,NW,315,1.1,2.3,73,0.00,BKN,,0.00,WeatherDisplay:10.37,2013-01-18 04:21:00,
2013-01-17 23:26:00,43.5,35.1,30.11,West,270,0.3,4.6,72,0.00,BKN,,0.00,WeatherDisplay:10.37,2013-01-18 04:26:00,
2013-01-17 23:31:00,43.5,35.8,30.12,West,270,0.4,4.6,74,0.00,BKN,,0.00,WeatherDisplay:10.37,2013-01-18 04:31:00,
2013-01-17 23:36:00,43.5,35.8,30.12,West,270,0.4,4.6,74,0.00,BKN,,0.00,WeatherDisplay:10.37,2013-01-18 04:36:00,
2013-01-17 23:41:00,43.3,35.6,30.12,SW,225,0.0,0.0,74,0.00,BKN,,0.00,WeatherDisplay:10.37,2013-01-18 04:41:00,
2013-01-17 23:46:00,43.3,35.6,30.12,SW,225,0.1,2.8,74,0.00,BKN,,0.00,WeatherDisplay:10.37,2013-01-18 04:46:00,
2013-01-17 23:51:00,43.2,35.4,30.12,West,270,1.4,11.5,74,0.00,BKN,,0.00,WeatherDisplay:10.37,2013-01-18 04:51:00,
2013-01-17 23:56:00,43.2,35.8,30.12,West,270,0.8,11.5,75,0.00,BKN,,0.00,WeatherDisplay:10.37,2013-01-18 04:56:00,